createdAt,value
2022-08-03T00:00:03.735Z,980.22
2022-08-03T00:01:03.802Z,980.25
2022-08-03T00:02:04.111Z,980.15
2022-08-03T00:03:03.219Z,980.12
2022-08-03T00:04:03.116Z,980.17
2022-08-03T00:05:03.154Z,980.15
2022-08-03T00:06:05.180Z,980.18
2022-08-03T00:07:03.364Z,980.23
2022-08-03T00:08:04.700Z,980.31
2022-08-03T00:09:03.439Z,980.29
2022-08-03T00:10:03.592Z,980.31
2022-08-03T00:11:03.607Z,980.26
2022-08-03T00:12:03.658Z,980.29
2022-08-03T00:13:03.620Z,980.18
2022-08-03T00:14:03.737Z,980.10
2022-08-03T00:15:11.187Z,980.18
2022-08-03T00:16:03.856Z,980.13
2022-08-03T00:17:03.928Z,980.13
2022-08-03T00:18:02.935Z,980.24
2022-08-03T00:19:03.078Z,980.21
2022-08-03T00:20:03.097Z,980.10
2022-08-03T00:21:03.251Z,980.24
2022-08-03T00:22:03.387Z,980.35
2022-08-03T00:23:03.420Z,980.27
2022-08-03T00:24:03.421Z,980.16
2022-08-03T00:25:03.546Z,980.21
2022-08-03T00:26:03.695Z,980.13
2022-08-03T00:27:03.701Z,980.33
2022-08-03T00:28:03.701Z,980.11
2022-08-03T00:29:03.767Z,980.36
2022-08-03T00:30:03.778Z,980.30
2022-08-03T00:31:03.781Z,980.17
2022-08-03T00:32:03.943Z,980.17
2022-08-03T00:33:03.159Z,980.24
2022-08-03T00:34:04.548Z,980.22
2022-08-03T00:35:11.356Z,980.36
2022-08-03T00:36:03.041Z,980.17
2022-08-03T00:37:03.146Z,980.25
2022-08-03T00:38:03.297Z,980.25
2022-08-03T00:39:03.382Z,980.14
2022-08-03T00:40:05.761Z,980.14
2022-08-03T00:41:03.342Z,980.28
2022-08-03T00:42:03.384Z,980.17
2022-08-03T00:43:03.428Z,980.14
2022-08-03T00:44:03.438Z,980.22
2022-08-03T00:45:03.463Z,980.14
2022-08-03T00:46:03.577Z,980.17
2022-08-03T00:47:03.589Z,980.17
2022-08-03T00:48:03.706Z,980.17
2022-08-03T00:49:03.889Z,980.34
2022-08-03T00:50:02.874Z,980.06
2022-08-03T00:51:03.069Z,980.15
2022-08-03T00:52:09.876Z,980.15
2022-08-03T00:53:03.279Z,980.15
2022-08-03T00:54:03.200Z,980.26
2022-08-03T00:55:03.247Z,980.29
2022-08-03T00:56:03.270Z,980.15
2022-08-03T00:57:03.402Z,980.13
2022-08-03T00:58:03.491Z,980.10
2022-08-03T00:59:03.669Z,980.18
2022-08-03T01:00:03.702Z,980.16
2022-08-03T01:01:03.878Z,980.18
2022-08-03T01:02:03.797Z,980.23
2022-08-03T01:03:03.798Z,980.16
2022-08-03T01:04:03.817Z,980.21
2022-08-03T01:05:03.018Z,980.10
2022-08-03T01:06:03.000Z,980.04
2022-08-03T01:07:02.943Z,980.10
2022-08-03T01:08:03.029Z,980.01
2022-08-03T01:09:03.009Z,980.04
2022-08-03T01:10:03.082Z,980.10
2022-08-03T01:11:03.005Z,980.13
2022-08-03T01:12:03.146Z,980.02
2022-08-03T01:13:03.190Z,980.05
2022-08-03T01:14:26.277Z,980.07
2022-08-03T01:15:03.413Z,980.02
2022-08-03T01:16:03.384Z,980.08
2022-08-03T01:17:03.634Z,980.05
2022-08-03T01:18:03.702Z,980.11
2022-08-03T01:19:03.615Z,979.99
2022-08-03T01:20:03.628Z,980.11
2022-08-03T01:21:03.591Z,980.11
2022-08-03T01:22:04.040Z,980.05
2022-08-03T01:23:03.867Z,979.91
2022-08-03T01:24:03.869Z,979.94
2022-08-03T01:25:03.812Z,980.02
2022-08-03T01:26:03.011Z,979.99
2022-08-03T01:27:03.806Z,979.99
2022-08-03T01:28:03.088Z,980.00
2022-08-03T01:29:03.196Z,980.02
2022-08-03T01:30:03.247Z,979.97
2022-08-03T01:31:03.341Z,979.94
2022-08-03T01:33:01.955Z,979.77
2022-08-03T01:33:04.114Z,979.94
2022-08-03T01:34:07.709Z,980.03
2022-08-03T01:35:03.728Z,979.91
2022-08-03T01:36:03.769Z,980.03
2022-08-03T01:37:03.790Z,979.91
2022-08-03T01:38:03.779Z,979.86
2022-08-03T01:39:03.828Z,979.97
2022-08-03T01:40:02.995Z,979.81
2022-08-03T01:41:04.036Z,979.84
2022-08-03T01:42:03.033Z,979.91
2022-08-03T01:43:02.997Z,979.75
2022-08-03T01:44:31.105Z,979.92
2022-08-03T01:45:03.163Z,980.00
2022-08-03T01:46:03.317Z,979.84
2022-08-03T01:47:03.350Z,979.86
2022-08-03T01:48:03.362Z,979.81
2022-08-03T01:49:09.915Z,979.95
2022-08-03T01:50:03.512Z,979.86
2022-08-03T01:51:03.550Z,979.84
2022-08-03T01:52:05.646Z,979.73
2022-08-03T01:53:03.556Z,979.79
2022-08-03T01:54:03.526Z,979.89
2022-08-03T01:55:03.571Z,979.82
2022-08-03T01:56:03.677Z,979.79
2022-08-03T01:57:03.779Z,979.73
2022-08-03T01:58:06.996Z,979.82
2022-08-03T01:59:03.814Z,979.87
2022-08-03T02:00:03.778Z,979.79
2022-08-03T02:01:03.895Z,979.82
2022-08-03T02:02:34.553Z,979.73
2022-08-03T02:03:03.874Z,979.85
2022-08-03T02:04:02.974Z,979.76
2022-08-03T02:05:03.074Z,979.79
2022-08-03T02:07:03.252Z,979.79
2022-08-03T02:07:03.894Z,979.85
2022-08-03T02:08:03.530Z,979.82
2022-08-03T02:09:03.635Z,979.87
2022-08-03T02:10:03.736Z,979.79
2022-08-03T02:11:03.742Z,979.82
2022-08-03T02:12:03.720Z,979.77
2022-08-03T02:13:03.768Z,979.82
2022-08-03T02:14:03.846Z,979.74
2022-08-03T02:15:03.900Z,979.85
2022-08-03T02:16:03.728Z,979.62
2022-08-03T02:17:03.685Z,979.80
2022-08-03T02:18:03.723Z,979.74
2022-08-03T02:19:03.854Z,979.77
2022-08-03T02:20:03.854Z,979.74
2022-08-03T02:21:11.346Z,979.68
2022-08-03T02:22:02.886Z,979.71
2022-08-03T02:23:03.068Z,979.77
2022-08-03T02:24:03.104Z,979.71
2022-08-03T02:25:03.107Z,979.77
2022-08-03T02:26:03.252Z,979.74
2022-08-03T02:27:03.238Z,979.68
2022-08-03T02:28:03.265Z,979.74
2022-08-03T02:29:04.029Z,979.72
2022-08-03T02:30:03.251Z,979.72
2022-08-03T02:31:03.331Z,979.75
2022-08-03T02:32:03.465Z,979.60
2022-08-03T02:33:03.570Z,979.63
2022-08-03T02:34:03.723Z,979.78
2022-08-03T02:35:03.766Z,979.75
2022-08-03T02:36:03.750Z,979.69
2022-08-03T02:37:03.855Z,979.69
2022-08-03T02:38:02.988Z,979.75
2022-08-03T02:39:02.946Z,979.66
2022-08-03T02:40:03.363Z,979.61
2022-08-03T02:41:03.344Z,979.72
2022-08-03T02:42:05.111Z,979.78
2022-08-03T02:43:03.849Z,979.69
2022-08-03T02:44:07.540Z,979.67
2022-08-03T02:45:02.988Z,979.70
2022-08-03T02:46:03.069Z,979.75
2022-08-03T02:47:03.239Z,979.73
2022-08-03T02:48:03.218Z,979.73
2022-08-03T02:49:52.035Z,979.67
2022-08-03T02:50:03.361Z,979.76
2022-08-03T02:51:03.223Z,979.67
2022-08-03T02:52:03.361Z,979.67
2022-08-03T02:53:03.444Z,979.67
2022-08-03T02:54:03.434Z,979.70
2022-08-03T02:55:03.431Z,979.61
2022-08-03T02:56:02.971Z,979.64
2022-08-03T02:57:02.993Z,979.58
2022-08-03T02:58:03.093Z,979.56
2022-08-03T02:59:03.135Z,979.64
2022-08-03T03:00:03.191Z,979.56
2022-08-03T03:01:03.356Z,979.44
2022-08-03T03:02:03.334Z,979.62
2022-08-03T03:03:03.351Z,979.68
2022-08-03T03:04:03.292Z,979.42
2022-08-03T03:05:57.383Z,979.50
2022-08-03T03:06:06.114Z,979.56
2022-08-03T03:07:04.936Z,979.54
2022-08-03T03:08:18.893Z,979.48
2022-08-03T03:09:03.512Z,979.51
2022-08-03T03:10:03.531Z,979.51
2022-08-03T03:11:03.613Z,979.54
2022-08-03T03:12:03.596Z,979.45
2022-08-03T03:13:03.673Z,979.63
2022-08-03T03:14:03.721Z,979.48
2022-08-03T03:15:03.670Z,979.42
2022-08-03T03:16:03.787Z,979.40
2022-08-03T03:17:03.831Z,979.45
2022-08-03T03:18:02.975Z,979.37
2022-08-03T03:19:03.014Z,979.51
2022-08-03T03:20:03.057Z,979.28
2022-08-03T03:21:02.931Z,979.46
2022-08-03T03:22:03.107Z,979.54
2022-08-03T03:23:02.980Z,979.40
2022-08-03T03:24:02.888Z,979.46
2022-08-03T03:25:02.989Z,979.60
2022-08-03T03:26:03.147Z,979.54
2022-08-03T03:27:03.082Z,979.34
2022-08-03T03:28:03.233Z,979.34
2022-08-03T03:29:03.355Z,979.40
2022-08-03T03:30:03.309Z,979.34
2022-08-03T03:31:03.363Z,979.34
2022-08-03T03:32:09.221Z,979.46
2022-08-03T03:33:03.361Z,979.40
2022-08-03T03:34:04.029Z,979.31
2022-08-03T03:35:03.340Z,979.46
2022-08-03T03:36:03.498Z,979.37
2022-08-03T03:37:03.410Z,979.46
2022-08-03T03:38:03.412Z,979.52
2022-08-03T03:39:16.191Z,979.31
2022-08-03T03:40:03.384Z,979.52
2022-08-03T03:41:03.368Z,979.63
2022-08-03T03:42:03.393Z,979.46
2022-08-03T03:43:03.439Z,979.49
2022-08-03T03:44:03.487Z,979.52
2022-08-03T03:45:03.701Z,979.52
2022-08-03T03:46:03.421Z,979.35
2022-08-03T03:47:03.434Z,979.46
2022-08-03T03:48:03.437Z,979.37
2022-08-03T03:49:03.662Z,979.40
2022-08-03T03:50:03.448Z,979.37
2022-08-03T03:51:03.596Z,979.40
2022-08-03T03:52:03.635Z,979.40
2022-08-03T03:53:03.702Z,979.32
2022-08-03T03:54:03.753Z,979.43
2022-08-03T03:55:03.793Z,979.43
2022-08-03T03:56:03.775Z,979.52
2022-08-03T03:57:02.954Z,979.35
2022-08-03T03:58:02.981Z,979.38
2022-08-03T03:59:03.018Z,979.44
2022-08-03T04:00:02.975Z,979.35
2022-08-03T04:01:03.123Z,979.23
2022-08-03T04:02:03.071Z,979.32
2022-08-03T04:03:02.990Z,979.38
2022-08-03T04:04:02.926Z,979.35
2022-08-03T04:05:02.940Z,979.44
2022-08-03T04:06:02.967Z,979.38
2022-08-03T04:07:03.051Z,979.29
2022-08-03T04:08:03.004Z,979.21
2022-08-03T04:09:02.955Z,979.26
2022-08-03T04:10:15.068Z,979.23
2022-08-03T04:11:03.049Z,979.35
2022-08-03T04:12:02.985Z,979.32
2022-08-03T04:13:03.005Z,979.32
2022-08-03T04:14:03.004Z,979.26
2022-08-03T04:15:03.111Z,979.38
2022-08-03T04:16:03.089Z,979.26
2022-08-03T04:17:03.453Z,979.26
2022-08-03T04:18:03.605Z,979.26
2022-08-03T04:19:03.592Z,979.23
2022-08-03T04:20:03.834Z,979.35
2022-08-03T04:21:03.807Z,979.29
2022-08-03T04:22:03.819Z,979.21
2022-08-03T04:23:03.851Z,979.32
2022-08-03T04:24:03.065Z,979.26
2022-08-03T04:25:03.473Z,979.32
2022-08-03T04:26:03.635Z,979.32
2022-08-03T04:27:03.253Z,979.29
2022-08-03T04:28:31.954Z,979.23
2022-08-03T04:29:03.638Z,979.32
2022-08-03T04:30:03.648Z,979.32
2022-08-03T04:31:03.753Z,979.23
2022-08-03T04:32:03.808Z,979.23
2022-08-03T04:33:04.017Z,979.31
2022-08-03T04:34:03.872Z,979.26
2022-08-03T04:35:03.937Z,979.28
2022-08-03T04:36:04.181Z,979.28
2022-08-03T04:37:03.064Z,979.22
2022-08-03T04:38:03.176Z,979.36
2022-08-03T04:39:03.259Z,979.35
2022-08-03T04:40:03.229Z,979.23
2022-08-03T04:41:03.263Z,979.28
2022-08-03T04:42:09.216Z,979.36
2022-08-03T04:43:03.450Z,979.33
2022-08-03T04:44:03.496Z,979.32
2022-08-03T04:45:03.591Z,979.31
2022-08-03T04:46:03.592Z,979.18
2022-08-03T04:47:03.634Z,979.35
2022-08-03T04:48:03.744Z,979.43
2022-08-03T04:49:04.045Z,979.33
2022-08-03T04:50:02.943Z,979.41
2022-08-03T04:51:02.943Z,979.37
2022-08-03T04:52:02.995Z,979.51
2022-08-03T04:53:02.936Z,979.47
2022-08-03T04:54:03.085Z,979.67
2022-08-03T04:55:03.064Z,979.46
2022-08-03T04:56:03.061Z,979.53
2022-08-03T04:57:03.155Z,979.70
2022-08-03T04:58:03.180Z,979.58
2022-08-03T04:59:03.216Z,979.57
2022-08-03T05:00:04.073Z,979.53
2022-08-03T05:01:03.227Z,979.67
2022-08-03T05:02:03.547Z,979.84
2022-08-03T05:03:03.440Z,979.74
2022-08-03T05:04:03.492Z,979.74
2022-08-03T05:05:03.588Z,979.98
2022-08-03T05:06:11.839Z,979.84
2022-08-03T05:07:12.918Z,979.88
2022-08-03T05:08:03.862Z,979.90
2022-08-03T05:09:04.527Z,979.96
2022-08-03T05:10:03.809Z,980.10
2022-08-03T05:11:02.938Z,980.09
2022-08-03T05:12:02.965Z,980.06
2022-08-03T05:13:02.946Z,980.17
2022-08-03T05:14:02.953Z,980.07
2022-08-03T05:15:02.976Z,980.21
2022-08-03T05:16:03.035Z,980.18
2022-08-03T05:17:03.342Z,980.34
2022-08-03T05:18:03.417Z,980.25
2022-08-03T05:19:03.525Z,980.27
2022-08-03T05:20:03.535Z,980.41
2022-08-03T05:21:03.524Z,980.44
2022-08-03T05:22:03.701Z,980.49
2022-08-03T05:23:03.704Z,980.49
2022-08-03T05:24:03.922Z,980.48
2022-08-03T05:25:03.784Z,980.56
2022-08-03T05:26:03.721Z,980.74
2022-08-03T05:27:03.792Z,980.64
2022-08-03T05:28:03.856Z,980.61
2022-08-03T05:29:02.984Z,980.72
2022-08-03T05:30:34.683Z,980.63
2022-08-03T05:31:02.936Z,980.72
2022-08-03T05:32:08.551Z,980.80
2022-08-03T05:33:03.120Z,980.77
2022-08-03T05:34:03.247Z,980.73
2022-08-03T05:36:04.140Z,980.87
2022-08-03T05:36:04.936Z,980.87
2022-08-03T05:37:03.400Z,980.99
2022-08-03T05:38:04.130Z,980.95
2022-08-03T05:39:03.404Z,980.92
2022-08-03T05:40:03.362Z,981.03
2022-08-03T05:41:36.742Z,981.00
2022-08-03T05:42:03.571Z,981.06
2022-08-03T05:43:03.357Z,981.02
2022-08-03T05:44:03.516Z,981.08
2022-08-03T05:45:03.205Z,981.13
2022-08-03T05:46:13.100Z,981.19
2022-08-03T05:47:03.593Z,981.22
2022-08-03T05:48:03.731Z,981.21
2022-08-03T05:49:03.808Z,981.24
2022-08-03T05:50:03.614Z,981.21
2022-08-03T05:51:03.795Z,981.27
2022-08-03T05:52:21.756Z,981.29
2022-08-03T05:53:03.799Z,981.32
2022-08-03T05:54:03.798Z,981.35
2022-08-03T05:55:03.842Z,981.37
2022-08-03T05:56:16.755Z,981.37
2022-08-03T05:57:03.823Z,981.43
2022-08-03T05:58:02.949Z,981.37
2022-08-03T05:59:38.568Z,981.54
2022-08-03T06:00:03.921Z,981.45
2022-08-03T06:01:05.195Z,981.42
2022-08-03T06:02:03.287Z,981.54
2022-08-03T06:03:03.198Z,981.48
2022-08-03T06:04:03.852Z,981.50
2022-08-03T06:05:03.867Z,981.50
2022-08-03T06:06:02.925Z,981.50
2022-08-03T06:07:03.078Z,981.63
2022-08-03T06:08:03.202Z,981.52
2022-08-03T06:09:03.168Z,981.43
2022-08-03T06:10:38.543Z,981.68
2022-08-03T06:11:03.270Z,981.52
2022-08-03T06:12:03.393Z,981.62
2022-08-03T06:13:03.421Z,981.51
2022-08-03T06:14:03.520Z,981.71
2022-08-03T06:15:03.661Z,981.58
2022-08-03T06:16:03.721Z,981.58
2022-08-03T06:17:02.968Z,981.73
2022-08-03T06:18:02.952Z,981.81
2022-08-03T06:19:03.036Z,981.72
2022-08-03T06:20:03.238Z,981.75
2022-08-03T06:21:16.307Z,981.60
2022-08-03T06:22:03.622Z,981.72
2022-08-03T06:23:04.387Z,981.72
2022-08-03T06:24:06.575Z,981.77
2022-08-03T06:25:10.189Z,981.65
2022-08-03T06:26:02.963Z,981.80
2022-08-03T06:27:03.180Z,981.65
2022-08-03T06:28:03.253Z,981.68
2022-08-03T06:29:04.302Z,981.74
2022-08-03T06:30:03.288Z,981.65
2022-08-03T06:31:03.353Z,981.68
2022-08-03T06:32:03.407Z,981.83
2022-08-03T06:33:03.506Z,981.80
2022-08-03T06:34:35.837Z,981.71
2022-08-03T06:35:03.632Z,981.77
2022-08-03T06:36:03.725Z,981.62
2022-08-03T06:37:03.798Z,981.67
2022-08-03T06:38:03.040Z,981.73
2022-08-03T06:39:03.015Z,981.70
2022-08-03T06:40:02.954Z,981.73
2022-08-03T06:41:03.071Z,981.87
2022-08-03T06:42:03.086Z,981.81
2022-08-03T06:43:04.092Z,981.78
2022-08-03T06:44:04.949Z,981.93
2022-08-03T06:45:03.194Z,981.90
2022-08-03T06:46:03.268Z,981.84
2022-08-03T06:47:03.333Z,981.86
2022-08-03T06:48:03.348Z,981.69
2022-08-03T06:49:03.502Z,981.92
2022-08-03T06:50:19.086Z,981.74
2022-08-03T06:51:07.095Z,981.92
2022-08-03T06:52:07.208Z,981.86
2022-08-03T06:53:03.758Z,981.86
2022-08-03T06:54:03.646Z,981.83
2022-08-03T06:55:03.806Z,981.83
2022-08-03T06:56:03.847Z,981.82
2022-08-03T06:57:03.866Z,981.88
2022-08-03T06:58:03.888Z,981.79
2022-08-03T06:59:03.105Z,981.76
2022-08-03T07:00:11.754Z,981.82
2022-08-03T07:01:03.436Z,981.79
2022-08-03T07:02:03.435Z,981.79
2022-08-03T07:03:03.478Z,981.79
2022-08-03T07:04:03.567Z,981.85
2022-08-03T07:05:03.766Z,981.70
2022-08-03T07:06:03.785Z,981.73
2022-08-03T07:07:03.329Z,981.81
2022-08-03T07:08:03.386Z,981.75
2022-08-03T07:09:03.491Z,981.81
2022-08-03T07:10:03.619Z,981.87
2022-08-03T07:11:04.680Z,981.84
2022-08-03T07:12:03.664Z,981.81
2022-08-03T07:13:03.697Z,981.75
2022-08-03T07:14:03.697Z,981.83
2022-08-03T07:15:04.034Z,981.68
2022-08-03T07:16:03.718Z,981.92
2022-08-03T07:17:12.089Z,981.77
2022-08-03T07:18:03.952Z,981.83
2022-08-03T07:19:02.990Z,981.76
2022-08-03T07:20:02.876Z,981.73
2022-08-03T07:21:02.964Z,981.70
2022-08-03T07:22:04.808Z,981.79
2022-08-03T07:23:03.067Z,981.76
2022-08-03T07:24:03.334Z,981.68
2022-08-03T07:25:03.337Z,981.82
2022-08-03T07:26:03.389Z,981.79
2022-08-03T07:27:03.507Z,981.65
2022-08-03T07:28:03.612Z,981.76
2022-08-03T07:29:03.498Z,981.73
2022-08-03T07:30:03.555Z,981.76
2022-08-03T07:31:03.590Z,981.64
2022-08-03T07:32:03.629Z,981.64
2022-08-03T07:33:03.778Z,981.61
2022-08-03T07:34:02.942Z,981.64
2022-08-03T07:35:08.942Z,981.56
2022-08-03T07:36:03.021Z,981.69
2022-08-03T07:37:03.113Z,981.75
2022-08-03T07:38:02.996Z,981.72
2022-08-03T07:39:18.222Z,981.63
2022-08-03T07:40:03.099Z,981.66
2022-08-03T07:41:03.090Z,981.52
2022-08-03T07:42:03.221Z,981.57
2022-08-03T07:43:03.464Z,981.60
2022-08-03T07:44:03.420Z,981.63
2022-08-03T07:45:03.486Z,981.60
2022-08-03T07:46:03.236Z,981.60
2022-08-03T07:47:03.888Z,981.60
2022-08-03T07:48:04.082Z,981.57
2022-08-03T07:49:03.644Z,981.52
2022-08-03T07:50:03.537Z,981.49
2022-08-03T07:51:03.549Z,981.51
2022-08-03T07:52:03.583Z,981.51
2022-08-03T07:53:03.560Z,981.54
2022-08-03T07:54:03.566Z,981.54
2022-08-03T07:55:03.667Z,981.62
2022-08-03T07:56:11.605Z,981.54
2022-08-03T07:57:03.727Z,981.48
2022-08-03T07:58:03.634Z,981.54
2022-08-03T07:59:03.829Z,981.56
2022-08-03T08:00:03.446Z,981.48
2022-08-03T08:01:03.457Z,981.50
2022-08-03T08:02:03.276Z,981.53
2022-08-03T08:03:03.303Z,981.53
2022-08-03T08:04:03.583Z,981.53
2022-08-03T08:05:06.301Z,981.47
2022-08-03T08:06:03.562Z,981.53
2022-08-03T08:07:03.276Z,981.52
2022-08-03T08:08:03.234Z,981.41
2022-08-03T08:09:03.327Z,981.52
2022-08-03T08:10:03.326Z,981.40
2022-08-03T08:11:03.279Z,981.46
2022-08-03T08:12:03.359Z,981.46
2022-08-03T08:13:04.387Z,981.66
2022-08-03T08:14:03.456Z,981.63
2022-08-03T08:15:03.545Z,981.60
2022-08-03T08:16:03.687Z,981.63
2022-08-03T08:17:07.648Z,981.60
2022-08-03T08:18:03.932Z,981.57
2022-08-03T08:19:02.908Z,981.63
2022-08-03T08:20:03.044Z,981.63
2022-08-03T08:21:03.186Z,981.49
2022-08-03T08:22:03.456Z,981.57
2022-08-03T08:23:08.915Z,981.52
2022-08-03T08:24:03.796Z,981.55
2022-08-03T08:25:04.270Z,981.63
2022-08-03T08:26:03.259Z,981.55
2022-08-03T08:27:03.373Z,981.55
2022-08-03T08:28:33.417Z,981.57
2022-08-03T08:29:03.468Z,981.63
2022-08-03T08:30:13.091Z,981.57
2022-08-03T08:31:03.548Z,981.57
2022-08-03T08:32:03.724Z,981.46
2022-08-03T08:33:03.729Z,981.60
2022-08-03T08:34:05.232Z,981.46
2022-08-03T08:35:03.787Z,981.52
2022-08-03T08:36:02.950Z,981.60
2022-08-03T08:37:03.883Z,981.57
2022-08-03T08:38:06.169Z,981.60
2022-08-03T08:39:03.052Z,981.49
2022-08-03T08:40:03.156Z,981.56
2022-08-03T08:41:03.160Z,981.54
2022-08-03T08:42:03.085Z,981.48
2022-08-03T08:43:03.193Z,981.56
2022-08-03T08:44:03.282Z,981.56
2022-08-03T08:45:06.712Z,981.53
2022-08-03T08:46:03.377Z,981.58
2022-08-03T08:47:03.498Z,981.70
2022-08-03T08:48:08.588Z,981.53
2022-08-03T08:49:05.419Z,981.58
2022-08-03T08:50:21.617Z,981.50
2022-08-03T08:51:03.767Z,981.67
2022-08-03T08:52:03.829Z,981.61
2022-08-03T08:53:03.755Z,981.53
2022-08-03T08:54:03.961Z,981.53
2022-08-03T08:55:02.944Z,981.53
2022-08-03T08:56:03.074Z,981.61
2022-08-03T08:57:03.068Z,981.61
2022-08-03T08:58:03.926Z,981.58
2022-08-03T08:59:03.990Z,981.56
2022-08-03T09:00:03.650Z,981.67
2022-08-03T09:01:03.917Z,981.61
2022-08-03T09:02:04.754Z,981.58
2022-08-03T09:03:03.877Z,981.56
2022-08-03T09:04:03.025Z,981.69
2022-08-03T09:05:07.857Z,981.57
2022-08-03T09:06:03.078Z,981.63
2022-08-03T09:07:20.530Z,981.52
2022-08-03T09:08:03.302Z,981.60
2022-08-03T09:09:03.380Z,981.60
2022-08-03T09:10:13.913Z,981.67
2022-08-03T09:11:03.828Z,981.56
2022-08-03T09:12:41.366Z,981.58
2022-08-03T09:13:04.002Z,981.53
2022-08-03T09:14:03.779Z,981.61
2022-08-03T09:15:17.662Z,981.56
2022-08-03T09:16:02.997Z,981.44
2022-08-03T09:17:03.001Z,981.53
2022-08-03T09:18:02.925Z,981.58
2022-08-03T09:19:03.018Z,981.47
2022-08-03T09:20:03.933Z,981.58
2022-08-03T09:21:31.554Z,981.47
2022-08-03T09:22:03.281Z,981.49
2022-08-03T09:23:51.351Z,981.46
2022-08-03T09:24:06.438Z,981.55
2022-08-03T09:25:24.823Z,981.57
2022-08-03T09:26:03.838Z,981.55
2022-08-03T09:27:03.852Z,981.57
2022-08-03T09:28:03.807Z,981.60
2022-08-03T09:29:14.309Z,981.52
2022-08-03T09:30:03.157Z,981.52
2022-08-03T09:31:03.060Z,981.60
2022-08-03T09:32:03.184Z,981.60
2022-08-03T09:33:03.142Z,981.55
2022-08-03T09:34:03.123Z,981.49
2022-08-03T09:35:03.149Z,981.49
2022-08-03T09:36:03.331Z,981.57
2022-08-03T09:37:03.309Z,981.60
2022-08-03T09:38:14.375Z,981.72
2022-08-03T09:39:03.463Z,981.60
2022-08-03T09:40:03.460Z,981.60
2022-08-03T09:41:03.551Z,981.69
2022-08-03T09:42:03.601Z,981.72
2022-08-03T09:43:03.673Z,981.69
2022-08-03T09:44:03.631Z,981.57
2022-08-03T09:45:03.742Z,981.63
2022-08-03T09:46:03.660Z,981.57
2022-08-03T09:47:03.714Z,981.52
2022-08-03T09:48:03.811Z,981.52
2022-08-03T09:49:11.983Z,981.55
2022-08-03T09:50:03.908Z,981.60
2022-08-03T09:51:32.663Z,981.49
2022-08-03T09:52:38.516Z,981.49
2022-08-03T09:53:03.903Z,981.36
2022-08-03T09:54:02.982Z,981.30
2022-08-03T09:55:03.151Z,981.24
2022-08-03T09:56:36.861Z,981.42
2022-08-03T09:57:03.300Z,981.36
2022-08-03T09:58:03.270Z,981.36
2022-08-03T09:59:03.358Z,981.29
2022-08-03T10:00:08.606Z,981.26
2022-08-03T10:01:03.619Z,981.29
2022-08-03T10:02:03.517Z,981.20
2022-08-03T10:03:03.493Z,981.38
2022-08-03T10:04:05.660Z,981.26
2022-08-03T10:05:03.611Z,981.29
2022-08-03T10:06:03.807Z,981.23
2022-08-03T10:07:03.958Z,981.23
2022-08-03T10:08:03.015Z,981.14
2022-08-03T10:09:02.945Z,981.22
2022-08-03T10:10:32.281Z,981.19
2022-08-03T10:11:03.063Z,981.31
2022-08-03T10:12:03.098Z,981.31
2022-08-03T10:13:03.052Z,981.25
2022-08-03T10:14:03.133Z,981.22
2022-08-03T10:15:03.128Z,981.31
2022-08-03T10:16:25.697Z,981.31
2022-08-03T10:17:03.230Z,981.22
2022-08-03T10:18:03.248Z,981.25
2022-08-03T10:19:03.286Z,981.13
2022-08-03T10:20:03.215Z,981.19
2022-08-03T10:21:03.396Z,981.28
2022-08-03T10:22:03.537Z,981.10
2022-08-03T10:23:03.535Z,981.08
2022-08-03T10:24:03.534Z,981.04
2022-08-03T10:25:03.634Z,981.07
2022-08-03T10:26:03.731Z,981.07
2022-08-03T10:27:03.753Z,981.01
2022-08-03T10:28:03.793Z,981.04
2022-08-03T10:29:03.837Z,980.98
2022-08-03T10:30:03.880Z,981.04
2022-08-03T10:31:02.992Z,981.01
2022-08-03T10:32:02.959Z,981.07
2022-08-03T10:33:02.995Z,980.95
2022-08-03T10:34:03.111Z,981.12
2022-08-03T10:35:21.517Z,980.94
2022-08-03T10:36:03.239Z,980.94
2022-08-03T10:37:03.179Z,980.88
2022-08-03T10:38:03.255Z,981.06
2022-08-03T10:39:16.447Z,981.09
2022-08-03T10:40:03.210Z,980.94
2022-08-03T10:41:03.161Z,981.06
2022-08-03T10:42:03.533Z,981.09
2022-08-03T10:43:03.325Z,981.03
2022-08-03T10:44:03.257Z,980.97
2022-08-03T10:45:03.292Z,980.88
2022-08-03T10:46:03.383Z,980.88
2022-08-03T10:47:03.292Z,980.88
2022-08-03T10:48:05.118Z,980.85
2022-08-03T10:49:03.263Z,980.73
2022-08-03T10:50:02.942Z,980.75
2022-08-03T10:51:03.054Z,980.84
2022-08-03T10:52:36.016Z,980.75
2022-08-03T10:53:04.371Z,980.75
2022-08-03T10:54:04.743Z,980.84
2022-08-03T10:55:09.949Z,980.72
2022-08-03T10:56:04.213Z,980.81
2022-08-03T10:57:14.318Z,980.92
2022-08-03T10:58:03.682Z,980.81
2022-08-03T10:59:04.220Z,980.89
2022-08-03T11:00:03.096Z,980.80
2022-08-03T11:01:03.407Z,980.86
2022-08-03T11:02:03.160Z,980.92
2022-08-03T11:03:03.223Z,980.95
2022-08-03T11:04:11.089Z,980.86
2022-08-03T11:05:03.304Z,980.83
2022-08-03T11:06:03.206Z,980.95
2022-08-03T11:07:03.375Z,980.80
2022-08-03T11:08:03.440Z,980.92
2022-08-03T11:09:03.601Z,980.77
2022-08-03T11:10:10.564Z,980.86
2022-08-03T11:11:03.609Z,980.89
2022-08-03T11:12:03.711Z,980.92
2022-08-03T11:13:03.896Z,980.98
2022-08-03T11:14:03.898Z,981.01
2022-08-03T11:15:03.840Z,980.92
2022-08-03T11:16:08.616Z,980.86
2022-08-03T11:17:03.161Z,980.86
2022-08-03T11:18:07.510Z,980.86
2022-08-03T11:19:04.221Z,980.89
2022-08-03T11:20:03.174Z,980.95
2022-08-03T11:21:04.293Z,980.92
2022-08-03T11:22:03.295Z,980.80
2022-08-03T11:23:03.577Z,980.98
2022-08-03T11:24:07.113Z,980.95
2022-08-03T11:25:03.562Z,980.92
2022-08-03T11:26:03.663Z,981.00
2022-08-03T11:27:06.273Z,980.82
2022-08-03T11:28:03.772Z,980.88
2022-08-03T11:29:03.927Z,980.88
2022-08-03T11:30:03.937Z,980.88
2022-08-03T11:31:03.570Z,980.91
2022-08-03T11:32:03.560Z,980.91
2022-08-03T11:33:03.770Z,981.00
2022-08-03T11:34:03.747Z,981.06
2022-08-03T11:35:03.800Z,981.12
2022-08-03T11:36:03.850Z,981.15
2022-08-03T11:37:03.824Z,981.15
2022-08-03T11:38:05.588Z,981.00
2022-08-03T11:39:03.117Z,980.97
2022-08-03T11:40:03.390Z,981.02
2022-08-03T11:41:03.239Z,980.93
2022-08-03T11:42:03.190Z,981.02
2022-08-03T11:43:03.241Z,981.02
2022-08-03T11:44:03.348Z,980.99
2022-08-03T11:45:03.601Z,980.81
2022-08-03T11:46:03.624Z,981.05
2022-08-03T11:47:03.559Z,980.96
2022-08-03T11:48:03.686Z,980.90
2022-08-03T11:49:10.663Z,980.96
2022-08-03T11:50:03.764Z,981.01
2022-08-03T11:51:03.755Z,980.86
2022-08-03T11:52:03.789Z,981.01
2022-08-03T11:53:03.866Z,980.83
2022-08-03T11:54:02.908Z,980.98
2022-08-03T11:55:03.172Z,980.95
2022-08-03T11:56:04.551Z,980.98
2022-08-03T11:57:03.012Z,981.01
2022-08-03T11:59:21.950Z,981.01
2022-08-03T11:59:21.977Z,981.10
2022-08-03T12:00:02.977Z,981.01
2022-08-03T12:01:02.998Z,981.13
2022-08-03T12:02:03.063Z,981.10
2022-08-03T12:03:03.209Z,981.04
2022-08-03T12:04:03.125Z,980.98
2022-08-03T12:05:03.295Z,980.95
2022-08-03T12:06:04.667Z,980.95
2022-08-03T12:07:03.380Z,981.07
2022-08-03T12:08:07.327Z,981.01
2022-08-03T12:09:03.586Z,981.04
2022-08-03T12:10:03.657Z,981.10
2022-08-03T12:11:03.789Z,981.25
2022-08-03T12:12:02.913Z,981.07
2022-08-03T12:13:02.974Z,981.07
2022-08-03T12:14:52.381Z,981.04
2022-08-03T12:15:03.488Z,980.89
2022-08-03T12:16:03.430Z,980.95
2022-08-03T12:17:03.632Z,980.92
2022-08-03T12:18:03.639Z,980.98
2022-08-03T12:19:03.628Z,980.98
2022-08-03T12:20:03.715Z,980.98
2022-08-03T12:21:03.713Z,981.01
2022-08-03T12:22:03.741Z,980.91
2022-08-03T12:23:04.473Z,980.97
2022-08-03T12:24:03.676Z,981.00
2022-08-03T12:25:03.751Z,980.88
2022-08-03T12:26:03.726Z,980.79
2022-08-03T12:27:03.837Z,980.91
2022-08-03T12:28:36.627Z,980.79